createdAt,value
2019-03-21T00:01:48.360Z,8.90
2019-03-21T00:05:49.229Z,8.70
2019-03-21T00:10:10.852Z,8.70
2019-03-21T00:14:15.550Z,8.50
2019-03-21T00:18:16.406Z,8.50
2019-03-21T00:22:17.285Z,8.30
2019-03-21T00:26:19.342Z,8.30
2019-03-21T00:30:22.235Z,7.50
2019-03-21T00:34:23.194Z,7.80
2019-03-21T00:38:24.160Z,8.30
2019-03-21T00:42:25.123Z,8.10
2019-03-21T00:46:26.095Z,8.10
2019-03-21T00:50:28.663Z,8.20
2019-03-21T00:54:29.515Z,7.80
2019-03-21T00:58:30.395Z,7.90
2019-03-21T01:02:31.370Z,8.00
2019-03-21T01:06:32.357Z,7.70
2019-03-21T01:10:33.183Z,8.00
2019-03-21T01:14:34.073Z,8.20
2019-03-21T01:18:38.329Z,8.20
2019-03-21T01:22:39.271Z,8.10
2019-03-21T01:26:40.265Z,7.80
2019-03-21T01:30:41.187Z,7.80
2019-03-21T01:34:42.090Z,7.70
2019-03-21T01:38:42.987Z,7.60
2019-03-21T01:42:43.889Z,7.20
2019-03-21T01:46:44.877Z,7.40
2019-03-21T01:50:45.868Z,7.60
2019-03-21T01:54:46.744Z,7.90
2019-03-21T01:58:47.732Z,7.50
2019-03-21T02:02:50.716Z,7.50
2019-03-21T02:06:51.573Z,7.50
2019-03-21T02:10:52.458Z,7.30
2019-03-21T02:14:53.340Z,6.50
2019-03-21T02:18:54.210Z,7.10
2019-03-21T02:22:55.067Z,7.10
2019-03-21T02:26:55.937Z,7.20
2019-03-21T02:30:56.845Z,7.60
2019-03-21T02:34:57.814Z,7.50
2019-03-21T02:38:58.794Z,7.40
2019-03-21T02:42:59.843Z,7.00
2019-03-21T02:47:00.744Z,7.20
2019-03-21T02:51:01.614Z,6.10
2019-03-21T02:55:04.634Z,6.70
2019-03-21T02:59:05.663Z,7.20
2019-03-21T03:03:06.949Z,7.30
2019-03-21T03:07:07.834Z,7.20
2019-03-21T03:11:17.555Z,6.80
2019-03-21T03:15:23.582Z,7.10
2019-03-21T03:19:24.647Z,7.10
2019-03-21T03:23:27.871Z,6.90
2019-03-21T03:27:28.760Z,6.70
2019-03-21T03:31:29.617Z,6.70
2019-03-21T03:35:30.545Z,6.60
2019-03-21T03:39:31.488Z,6.70
2019-03-21T03:43:32.484Z,6.60
2019-03-21T03:47:33.451Z,5.90
2019-03-21T03:51:34.331Z,5.50
2019-03-21T03:55:35.478Z,6.10
2019-03-21T03:59:36.358Z,6.60
2019-03-21T04:03:37.332Z,6.90
2019-03-21T04:07:39.449Z,6.70
2019-03-21T04:11:40.530Z,6.40
2019-03-21T04:15:52.585Z,6.70
2019-03-21T04:19:44.290Z,6.50
2019-03-21T04:23:45.249Z,6.90
2019-03-21T04:27:46.163Z,6.90
2019-03-21T04:31:47.058Z,6.50
2019-03-21T04:35:47.958Z,6.60
2019-03-21T04:39:48.819Z,6.80
2019-03-21T04:43:49.679Z,6.50
2019-03-21T04:47:50.591Z,6.70
2019-03-21T04:51:51.547Z,6.70
2019-03-21T04:55:52.422Z,6.40
2019-03-21T04:59:53.295Z,6.50
2019-03-21T05:03:54.268Z,6.50
2019-03-21T05:07:55.378Z,6.30
2019-03-21T05:11:56.309Z,6.20
2019-03-21T05:15:57.228Z,6.20
2019-03-21T05:19:58.103Z,6.30
2019-03-21T05:23:58.998Z,6.10
2019-03-21T05:27:59.971Z,5.80
2019-03-21T05:32:03.583Z,6.30
2019-03-21T05:36:03.856Z,6.30
2019-03-21T05:40:13.422Z,4.50
2019-03-21T05:44:18.127Z,5.70
2019-03-21T05:48:18.998Z,6.10
2019-03-21T05:52:20.003Z,6.60
2019-03-21T05:56:20.901Z,6.90
2019-03-21T06:00:28.642Z,6.90
2019-03-21T06:04:29.536Z,7.00
2019-03-21T06:08:33.556Z,7.10
2019-03-21T06:12:44.273Z,7.40
2019-03-21T06:16:45.157Z,7.60
2019-03-21T06:20:59.246Z,7.80
2019-03-21T06:25:07.023Z,7.90
2019-03-21T06:29:08.011Z,8.20
2019-03-21T06:33:09.108Z,8.50
2019-03-21T06:37:10.021Z,8.80
2019-03-21T06:41:11.027Z,8.60
2019-03-21T06:45:11.957Z,8.70
2019-03-21T06:49:12.968Z,9.50
2019-03-21T06:53:13.937Z,10.20
2019-03-21T06:57:17.052Z,10.50
2019-03-21T07:01:17.939Z,11.10
2019-03-21T07:05:18.953Z,10.90
2019-03-21T07:09:19.848Z,11.10
2019-03-21T07:13:20.737Z,11.40
2019-03-21T07:17:23.011Z,12.20
2019-03-21T07:21:24.173Z,12.90
2019-03-21T07:25:25.099Z,13.50
2019-03-21T07:29:26.177Z,14.10
2019-03-21T07:33:27.068Z,14.60
2019-03-21T07:37:28.141Z,15.00
2019-03-21T07:41:29.120Z,14.90
2019-03-21T07:45:30.033Z,14.50
2019-03-21T07:49:32.775Z,14.90
2019-03-21T07:53:34.062Z,15.00
2019-03-21T07:57:36.239Z,15.70
2019-03-21T08:01:37.208Z,16.30
2019-03-21T08:05:40.632Z,16.80
2019-03-21T08:09:41.571Z,17.10
2019-03-21T08:13:42.461Z,17.20
2019-03-21T08:17:43.588Z,17.60
2019-03-21T08:21:44.542Z,17.80
2019-03-21T08:25:45.627Z,17.80
2019-03-21T08:29:46.536Z,18.00
2019-03-21T08:33:47.511Z,17.70
2019-03-21T08:37:50.612Z,17.90
2019-03-21T08:41:51.777Z,17.80
2019-03-21T08:45:52.676Z,17.90
2019-03-21T08:49:53.666Z,17.20
2019-03-21T08:53:54.527Z,17.90
2019-03-21T08:57:55.390Z,17.80
2019-03-21T09:01:56.282Z,18.10
2019-03-21T09:05:57.297Z,17.90
2019-03-21T09:09:58.252Z,18.30
2019-03-21T09:13:59.385Z,18.10
2019-03-21T09:18:02.176Z,18.50
2019-03-21T09:22:03.357Z,17.30
2019-03-21T09:26:04.284Z,17.60
2019-03-21T09:30:11.805Z,16.20
2019-03-21T09:34:12.695Z,15.30
2019-03-21T09:38:13.644Z,15.50
2019-03-21T09:42:14.928Z,15.10
2019-03-21T09:46:15.905Z,17.70
2019-03-21T09:50:25.572Z,17.90
2019-03-21T09:54:26.471Z,17.90
2019-03-21T09:58:27.846Z,18.20
2019-03-21T10:02:29.826Z,18.60
2019-03-21T10:06:30.846Z,18.10
2019-03-21T10:10:32.741Z,18.30
2019-03-21T10:14:33.630Z,18.30
2019-03-21T10:18:34.496Z,17.80
2019-03-21T10:22:35.502Z,18.30
2019-03-21T10:26:36.576Z,18.20
2019-03-21T10:30:39.266Z,18.60
2019-03-21T10:34:40.136Z,18.70
2019-03-21T10:38:41.025Z,19.10
2019-03-21T10:42:41.928Z,18.90
2019-03-21T10:46:42.856Z,18.00
2019-03-21T10:50:43.952Z,18.50
2019-03-21T10:54:44.982Z,18.00
2019-03-21T10:58:45.984Z,18.60
2019-03-21T11:02:47.079Z,19.40
2019-03-21T11:06:50.370Z,19.40
2019-03-21T11:10:51.337Z,19.90
2019-03-21T11:14:52.230Z,19.00
2019-03-21T11:18:53.209Z,19.50
2019-03-21T11:22:55.822Z,20.30
2019-03-21T11:26:57.023Z,19.00
2019-03-21T11:30:58.054Z,18.60
2019-03-21T11:34:59.019Z,19.70
2019-03-21T11:39:00.028Z,20.00
2019-03-21T11:43:01.947Z,20.50
2019-03-21T11:47:02.928Z,19.30
2019-03-21T11:51:03.912Z,15.90
2019-03-21T11:55:06.266Z,16.60
2019-03-21T11:59:07.148Z,18.40
2019-03-21T12:03:08.365Z,20.10
2019-03-21T12:07:09.215Z,19.50
2019-03-21T12:11:10.223Z,20.50
2019-03-21T12:15:11.737Z,20.50
2019-03-21T12:19:12.706Z,19.40
2019-03-21T12:23:13.592Z,20.10
2019-03-21T12:27:14.464Z,20.70
2019-03-21T12:31:15.440Z,20.90
2019-03-21T12:35:16.408Z,21.10
2019-03-21T12:39:17.334Z,21.40
2019-03-21T12:43:18.227Z,20.90
2019-03-21T12:47:30.617Z,21.00
2019-03-21T12:51:21.971Z,20.40
2019-03-21T12:55:22.871Z,20.80
2019-03-21T12:59:23.828Z,21.90
2019-03-21T13:03:24.680Z,21.70
2019-03-21T13:07:25.731Z,22.10
2019-03-21T13:11:26.703Z,23.50
2019-03-21T13:15:30.162Z,24.60
2019-03-21T13:19:30.490Z,24.60
2019-03-21T13:23:31.409Z,24.30
2019-03-21T13:27:32.290Z,26.40
2019-03-21T13:31:33.233Z,27.60
2019-03-21T13:35:34.214Z,27.60
2019-03-21T13:39:35.120Z,26.80
2019-03-21T13:43:36.018Z,27.00
2019-03-21T13:47:36.910Z,26.20
2019-03-21T13:51:37.784Z,26.00
2019-03-21T13:55:38.697Z,24.60
2019-03-21T13:59:39.650Z,24.90
2019-03-21T14:03:40.690Z,24.30
2019-03-21T14:07:41.789Z,24.20
2019-03-21T14:11:42.685Z,23.40
2019-03-21T14:15:43.688Z,22.70
2019-03-21T14:19:44.570Z,20.10
2019-03-21T14:23:45.999Z,19.00
2019-03-21T14:27:46.904Z,20.00
2019-03-21T14:31:47.869Z,19.40
2019-03-21T14:35:48.768Z,18.40
2019-03-21T14:39:49.676Z,17.70
2019-03-21T14:43:50.788Z,20.00
2019-03-21T14:47:51.679Z,20.70
2019-03-21T14:51:52.577Z,18.60
2019-03-21T14:55:53.484Z,19.20
2019-03-21T14:59:54.354Z,17.90
2019-03-21T15:03:55.444Z,16.80
2019-03-21T15:07:56.387Z,16.70
2019-03-21T15:11:57.493Z,16.50
2019-03-21T15:15:58.580Z,16.80
2019-03-21T15:19:59.542Z,17.00
2019-03-21T15:24:00.621Z,16.90
2019-03-21T15:28:01.480Z,16.50
2019-03-21T15:32:02.527Z,17.10
2019-03-21T15:36:03.720Z,17.30
2019-03-21T15:40:08.144Z,16.50
2019-03-21T15:44:09.208Z,16.30
2019-03-21T15:48:10.156Z,15.90
2019-03-21T15:52:12.419Z,16.20
2019-03-21T15:56:13.386Z,15.80
2019-03-21T16:00:18.261Z,15.60
2019-03-21T16:04:19.657Z,15.70
2019-03-21T16:08:20.611Z,15.80
2019-03-21T16:12:21.554Z,15.80
2019-03-21T16:16:23.087Z,15.70
2019-03-21T16:20:24.009Z,16.40
2019-03-21T16:24:25.193Z,16.90
2019-03-21T16:28:26.120Z,16.70
2019-03-21T16:32:27.101Z,17.80
2019-03-21T16:36:28.013Z,17.60
2019-03-21T16:40:28.886Z,16.60
2019-03-21T16:44:29.753Z,17.80
2019-03-21T16:48:30.767Z,18.10
2019-03-21T16:52:31.757Z,17.40
2019-03-21T16:56:32.771Z,17.80
2019-03-21T17:00:33.819Z,18.00
2019-03-21T17:04:34.850Z,17.90
2019-03-21T17:08:35.852Z,17.90
2019-03-21T17:12:37.038Z,18.50
2019-03-21T17:16:38.119Z,18.50
2019-03-21T17:20:39.353Z,19.20
2019-03-21T17:24:40.363Z,18.60
2019-03-21T17:28:41.356Z,18.80
2019-03-21T17:32:42.337Z,18.90
2019-03-21T17:36:43.428Z,18.90
2019-03-21T17:40:44.645Z,19.10
2019-03-21T17:44:45.986Z,18.90
2019-03-21T17:48:46.993Z,19.10
2019-03-21T17:52:47.898Z,19.00
2019-03-21T17:56:48.961Z,18.50
2019-03-21T18:00:49.986Z,18.20
2019-03-21T18:04:50.993Z,18.00
2019-03-21T18:08:52.216Z,17.80
2019-03-21T18:12:53.186Z,17.40
2019-03-21T18:16:54.190Z,17.20
2019-03-21T18:20:55.206Z,16.90
2019-03-21T18:24:56.100Z,17.10
2019-03-21T18:28:56.988Z,16.60
2019-03-21T18:32:58.293Z,16.20
2019-03-21T18:36:59.273Z,16.30
2019-03-21T18:41:00.415Z,16.30
2019-03-21T18:45:01.652Z,16.30
2019-03-21T18:49:02.792Z,15.20
2019-03-21T18:53:04.362Z,15.20
2019-03-21T18:57:05.348Z,14.90
2019-03-21T19:01:06.353Z,14.90
2019-03-21T19:05:07.580Z,15.20
2019-03-21T19:09:08.517Z,15.10
2019-03-21T19:13:09.510Z,15.00
2019-03-21T19:17:10.500Z,14.70
2019-03-21T19:21:11.758Z,14.80
2019-03-21T19:25:18.579Z,14.80
2019-03-21T19:29:16.206Z,14.60
2019-03-21T19:33:18.413Z,14.50
2019-03-21T19:37:19.702Z,14.40
2019-03-21T19:41:20.631Z,14.20
2019-03-21T19:45:21.647Z,13.90
2019-03-21T19:49:22.843Z,14.10
2019-03-21T19:53:24.246Z,14.00
2019-03-21T19:57:25.312Z,13.80
2019-03-21T20:01:26.346Z,13.80
2019-03-21T20:05:27.222Z,13.70
2019-03-21T20:09:28.336Z,13.80
2019-03-21T20:13:29.369Z,13.70
2019-03-21T20:17:30.365Z,13.10
2019-03-21T20:21:31.314Z,13.20
2019-03-21T20:25:42.208Z,13.20
2019-03-21T20:29:35.029Z,13.20
2019-03-21T20:33:37.270Z,12.90
2019-03-21T20:37:39.546Z,12.80
2019-03-21T20:41:40.439Z,12.80
2019-03-21T20:45:41.516Z,13.00
2019-03-21T20:49:42.460Z,13.00
2019-03-21T20:53:43.499Z,13.00
2019-03-21T20:57:44.456Z,12.90
2019-03-21T21:01:45.521Z,12.80
2019-03-21T21:05:46.495Z,12.60
2019-03-21T21:09:51.100Z,12.60
2019-03-21T21:13:52.089Z,12.40
2019-03-21T21:17:52.985Z,12.30
2019-03-21T21:21:56.375Z,12.10
2019-03-21T21:26:05.428Z,11.90
2019-03-21T21:30:04.964Z,11.60
2019-03-21T21:34:05.979Z,12.10
2019-03-21T21:38:06.906Z,12.20
2019-03-21T21:42:08.060Z,12.10
2019-03-21T21:46:08.915Z,11.90
2019-03-21T21:50:12.438Z,11.00
2019-03-21T21:54:13.444Z,11.60
2019-03-21T21:58:14.470Z,11.80
2019-03-21T22:02:15.669Z,12.00
2019-03-21T22:06:16.545Z,11.80
2019-03-21T22:10:17.650Z,11.80
2019-03-21T22:14:18.535Z,11.40
2019-03-21T22:18:19.515Z,11.50
2019-03-21T22:22:20.480Z,11.50
2019-03-21T22:26:29.669Z,11.40
2019-03-21T22:30:24.410Z,11.30
2019-03-21T22:34:25.422Z,11.50
2019-03-21T22:38:28.239Z,11.40
2019-03-21T22:42:30.229Z,11.30
2019-03-21T22:46:31.264Z,11.30
2019-03-21T22:50:33.495Z,11.00
2019-03-21T22:54:35.192Z,10.90
2019-03-21T22:58:36.630Z,10.90
2019-03-21T23:02:37.762Z,10.70
2019-03-21T23:06:38.729Z,10.80
2019-03-21T23:10:41.685Z,10.50
2019-03-21T23:14:42.711Z,10.50
2019-03-21T23:18:43.680Z,10.20
2019-03-21T23:22:44.700Z,10.60
2019-03-21T23:26:52.913Z,10.50
2019-03-21T23:30:48.368Z,10.30
2019-03-21T23:34:49.270Z,10.50
2019-03-21T23:38:50.230Z,10.50
2019-03-21T23:42:51.110Z,10.40
2019-03-21T23:46:52.112Z,10.20
2019-03-21T23:50:53.014Z,10.20
2019-03-21T23:54:54.028Z,10.10
2019-03-21T23:58:54.926Z,10.00
